Time;durP1;ratioP1;P1;durP2;ratioP2;P2;SDS_P1;SDS_P2;PMS_P1;PMS_P2;Temp;Humidity;BMP_temperature;BMP_pressure;BME280_temperature;BME280_humidity;BME280_pressure;Samples;Min_cycle;Max_cycle;Signal;HPM_P1;HPM_P2
2021/11/03 00:00:24;;;;;;;13.60;8.95;;;;;;;1.03;100.00;94845.72;1032054;28;20025;-51
2021/11/03 00:00:55;;;;;;;18.48;10.43;;;;;;;1.04;100.00;94833.69;1031984;28;20027;-50
2021/11/03 00:01:26;;;;;;;15.40;9.68;;;;;;;1.03;100.00;94837.97;1023875;29;20271;-50
2021/11/03 00:01:57;;;;;;;13.10;10.07;;;;;;;1.02;100.00;94838.06;1019685;29;20363;-51
2021/11/03 00:02:27;;;;;;;39.50;9.43;;;;;;;1.00;100.00;94835.56;1015980;29;20028;-50
2021/11/03 00:02:58;;;;;;;12.93;8.75;;;;;;;1.02;100.00;94832.91;1019727;29;20155;-51
2021/11/03 00:03:29;;;;;;;15.20;8.30;;;;;;;1.01;100.00;94833.81;1020067;29;20425;-50
2021/11/03 00:04:00;;;;;;;13.57;9.60;;;;;;;1.00;100.00;94827.00;1024331;28;20038;-50
2021/11/03 00:04:31;;;;;;;15.45;10.07;;;;;;;0.99;100.00;94828.72;1023789;29;20024;-51
2021/11/03 00:05:02;;;;;;;13.60;8.63;;;;;;;0.97;100.00;94827.97;1023952;29;20274;-50
2021/11/03 00:05:33;;;;;;;16.83;9.68;;;;;;;0.96;100.00;94827.16;1023965;29;20034;-50
2021/11/03 00:06:03;;;;;;;13.43;9.30;;;;;;;0.95;100.00;94822.06;1019889;29;20084;-50
2021/11/03 00:06:34;;;;;;;13.73;9.02;;;;;;;0.96;100.00;94824.56;1012028;29;20028;-51
2021/11/03 00:07:05;;;;;;;12.48;8.60;;;;;;;0.96;100.00;94832.31;1012018;29;20128;-50
2021/11/03 00:07:36;;;;;;;16.30;9.80;;;;;;;0.96;100.00;94829.72;1015978;29;20265;-50
2021/11/03 00:08:07;;;;;;;14.40;9.80;;;;;;;0.97;100.00;94827.97;1016455;29;20256;-50
2021/11/03 00:08:38;;;;;;;14.43;9.13;;;;;;;0.98;100.00;94821.94;1019803;29;20271;-50
2021/11/03 00:09:09;;;;;;;18.35;9.25;;;;;;;0.99;100.00;94825.34;1016369;29;20060;-50
2021/11/03 00:09:40;;;;;;;13.95;9.52;;;;;;;0.99;100.00;94825.34;1023750;29;20322;-50
2021/11/03 00:10:12;;;;;;;13.23;8.82;;;;;;;0.99;100.00;94833.88;1023949;29;20019;-50
2021/11/03 00:10:44;;;;;;;16.42;9.90;;;;;;;0.98;100.00;94824.50;1024691;28;20262;-49
2021/11/03 00:11:15;;;;;;;14.20;9.30;;;;;;;0.96;100.00;94823.75;1027371;28;20891;-52
2021/11/03 00:11:46;;;;;;;14.35;9.13;;;;;;;0.94;100.00;94823.00;1020476;29;20264;-50
2021/11/03 00:12:17;;;;;;;14.55;8.77;;;;;;;0.95;100.00;94824.66;1019824;29;20319;-51
2021/11/03 00:12:48;;;;;;;16.67;9.90;;;;;;;0.94;100.00;94826.41;1015836;29;20526;-50
2021/11/03 00:13:19;;;;;;;15.07;9.50;;;;;;;0.93;100.00;94819.56;1011974;29;20017;-50
2021/11/03 00:13:50;;;;;;;12.27;8.50;;;;;;;0.95;100.00;94822.06;1019681;29;20336;-50
2021/11/03 00:14:21;;;;;;;11.82;8.38;;;;;;;0.96;100.00;94822.00;1019881;29;20318;-51
2021/11/03 00:14:52;;;;;;;11.82;7.40;;;;;;;0.96;100.00;94819.41;1019980;29;20027;-49
2021/11/03 00:15:23;;;;;;;12.48;8.63;;;;;;;0.94;100.00;94816.09;1020126;29;20020;-52
2021/11/03 00:15:54;;;;;;;12.00;8.95;;;;;;;0.93;100.00;94816.16;1023684;29;20417;-51
2021/11/03 00:16:25;;;;;;;13.95;8.50;;;;;;;0.89;100.00;94812.06;1024195;28;20031;-50
2021/11/03 00:16:56;;;;;;;13.05;9.18;;;;;;;0.89;100.00;94812.06;1023969;28;20294;-50
2021/11/03 00:17:26;;;;;;;12.73;8.38;;;;;;;0.88;100.00;94806.09;1019859;28;20040;-50
2021/11/03 00:17:57;;;;;;;12.45;8.52;;;;;;;0.86;100.00;94807.06;1015800;29;20031;-52
2021/11/03 00:18:28;;;;;;;15.57;9.55;;;;;;;0.84;100.00;94806.31;1008274;29;20048;-50
2021/11/03 00:18:58;;;;;;;11.48;8.95;;;;;;;0.83;100.00;94808.06;1011924;29;20016;-50
2021/11/03 00:19:29;;;;;;;15.63;9.10;;;;;;;0.81;100.00;94807.31;1012086;29;20024;-51
2021/11/03 00:20:00;;;;;;;11.95;8.48;;;;;;;0.82;100.00;94800.41;1008216;29;20526;-51
2021/11/03 00:20:31;;;;;;;13.57;9.90;;;;;;;0.81;100.00;94806.44;1008595;29;20512;-51
2021/11/03 00:21:02;;;;;;;14.00;8.48;;;;;;;0.78;100.00;94800.53;1016121;29;20107;-51
2021/11/03 00:21:33;;;;;;;14.73;10.15;;;;;;;0.81;100.00;94807.31;1020693;28;20015;-51
2021/11/03 00:22:04;;;;;;;14.07;9.43;;;;;;;0.80;100.00;94804.81;1023686;29;20278;-50
2021/11/03 00:22:35;;;;;;;14.38;9.70;;;;;;;0.81;100.00;94801.28;1023881;29;20809;-51
2021/11/03 00:23:06;;;;;;;14.85;10.30;;;;;;;0.77;100.00;94798.88;1023634;29;20015;-50
2021/11/03 00:23:36;;;;;;;14.82;9.23;;;;;;;0.79;100.00;94803.97;1019833;29;20023;-50
2021/11/03 00:24:07;;;;;;;13.40;9.50;;;;;;;0.78;100.00;94803.13;1015691;29;20021;-52
2021/11/03 00:24:38;;;;;;;13.65;8.68;;;;;;;0.76;100.00;94797.22;1012168;29;20031;-50
2021/11/03 00:25:09;;;;;;;13.00;8.77;;;;;;;0.75;100.00;94799.88;1016219;29;20075;-49
2021/11/03 00:25:41;;;;;;;14.85;9.95;;;;;;;0.74;100.00;94793.88;1016000;29;20019;-51
2021/11/03 00:26:12;;;;;;;12.88;9.65;;;;;;;0.76;100.00;94801.53;1011848;29;20021;-50
2021/11/03 00:26:43;;;;;;;14.88;9.77;;;;;;;0.75;100.00;94795.56;1012016;29;20289;-50
2021/11/03 00:27:14;;;;;;;15.80;10.50;;;;;;;0.73;100.00;94788.78;1020158;29;20027;-50
2021/11/03 00:27:44;;;;;;;10.80;7.95;;;;;;;0.72;100.00;94793.13;1024261;28;20357;-50
2021/11/03 00:28:17;;;;;;;13.15;9.55;;;;;;;0.72;100.00;94792.31;1019692;29;20055;-50
2021/11/03 00:28:47;;;;;;;13.50;9.90;;;;;;;0.71;100.00;94794.06;1015791;29;20028;-51
2021/11/03 00:29:18;;;;;;;16.17;10.30;;;;;;;0.69;100.00;94793.28;1019946;29;20299;-50
2021/11/03 00:29:49;;;;;;;16.52;10.32;;;;;;;0.68;100.00;94785.63;1020406;29;20482;-51
2021/11/03 00:30:20;;;;;;;15.75;10.18;;;;;;;0.67;100.00;94791.69;1020137;28;20513;-51
2021/11/03 00:30:53;;;;;;;15.23;11.02;;;;;;;0.67;100.00;94782.19;1027700;28;20274;-50
2021/11/03 00:31:24;;;;;;;19.10;10.80;;;;;;;0.67;100.00;94789.94;1027660;28;20023;-50
2021/11/03 00:31:55;;;;;;;15.65;10.70;;;;;;;0.63;100.00;94785.84;1023849;28;20338;-50
2021/11/03 00:32:26;;;;;;;16.38;10.52;;;;;;;0.64;100.00;94789.25;1024237;28;20614;-52
2021/11/03 00:32:56;;;;;;;15.05;10.98;;;;;;;0.64;100.00;94786.69;1023676;29;20027;-49
2021/11/03 00:33:28;;;;;;;14.02;10.52;;;;;;;0.62;100.00;94785.94;1020025;29;20103;-50
2021/11/03 00:33:59;;;;;;;17.35;10.48;;;;;;;0.60;100.00;94785.16;1023815;29;20027;-50
2021/11/03 00:34:29;;;;;;;13.32;9.13;;;;;;;0.61;100.00;94786.84;1015972;29;20268;-51
2021/11/03 00:35:00;;;;;;;16.35;11.02;;;;;;;0.60;100.00;94785.16;1012471;29;20035;-50
2021/11/03 00:35:31;;;;;;;16.35;11.30;;;;;;;0.61;100.00;94787.69;1015894;29;20119;-50
2021/11/03 00:36:02;;;;;;;15.27;10.60;;;;;;;0.63;100.00;94783.28;1012191;29;20024;-50
2021/11/03 00:36:33;;;;;;;12.68;9.85;;;;;;;0.61;100.00;94779.94;1011968;29;20325;-51
2021/11/03 00:37:04;;;;;;;15.18;9.57;;;;;;;0.61;100.00;94782.53;1013022;29;20187;-50
2021/11/03 00:37:35;;;;;;;13.88;9.43;;;;;;;0.60;100.00;94780.84;1023919;28;20295;-50
2021/11/03 00:38:06;;;;;;;17.30;10.77;;;;;;;0.59;100.00;94779.19;1028013;28;20315;-51
2021/11/03 00:38:37;;;;;;;14.95;9.48;;;;;;;0.56;100.00;94775.03;1023891;29;20034;-50
2021/11/03 00:39:08;;;;;;;11.98;9.90;;;;;;;0.56;100.00;94782.78;1024499;29;20273;-51
2021/11/03 00:39:38;;;;;;;16.05;10.38;;;;;;;0.54;100.00;94783.72;1020478;29;20122;-51
2021/11/03 00:40:11;;;;;;;13.43;10.25;;;;;;;0.53;100.00;94780.34;1020566;29;20012;-50
2021/11/03 00:40:42;;;;;;;16.15;9.73;;;;;;;0.52;100.00;94777.81;1024065;29;20030;-51
2021/11/03 00:41:12;;;;;;;15.75;9.98;;;;;;;0.51;100.00;94777.00;1021341;28;20270;-50
2021/11/03 00:41:43;;;;;;;17.88;10.27;;;;;;;0.52;100.00;94782.97;1024870;28;20110;-50
2021/11/03 00:42:14;;;;;;;14.65;10.00;;;;;;;0.52;100.00;94778.66;1024496;28;20385;-50
2021/11/03 00:42:45;;;;;;;14.00;10.05;;;;;;;0.52;100.00;94778.66;1020276;29;20054;-50
2021/11/03 00:43:16;;;;;;;17.65;10.25;;;;;;;0.51;100.00;94779.56;1016798;29;20110;-50
2021/11/03 00:43:47;;;;;;;13.20;9.85;;;;;;;0.50;100.00;94779.66;1016549;29;20276;-50
2021/11/03 00:44:19;;;;;;;17.38;10.10;;;;;;;0.48;100.00;94784.88;1020210;29;20028;-50
2021/11/03 00:44:50;;;;;;;12.80;9.57;;;;;;;0.47;100.00;94780.66;1020224;29;20036;-49
2021/11/03 00:45:21;;;;;;;16.55;9.50;;;;;;;0.47;100.00;94779.78;1020506;29;20256;-51
2021/11/03 00:45:51;;;;;;;13.75;9.73;;;;;;;0.45;100.00;94781.59;1020596;29;20023;-48
2021/11/03 00:46:22;;;;;;;16.05;9.75;;;;;;;0.43;100.00;94778.28;1053508;22;20263;-50
2021/11/03 00:46:53;;;;;;;14.65;9.90;;;;;;;0.45;100.00;94781.59;1041808;28;20602;-51
2021/11/03 00:47:24;;;;;;;15.18;10.27;;;;;;;0.48;100.00;94781.47;1044557;28;20097;-50
2021/11/03 00:47:54;;;;;;;13.80;9.20;;;;;;;0.48;100.00;94782.28;1036111;28;20049;-51
2021/11/03 00:48:25;;;;;;;11.10;8.60;;;;;;;0.50;100.00;94784.81;1032384;28;20404;-50
2021/11/03 00:48:56;;;;;;;12.48;9.02;;;;;;;0.50;100.00;94785.63;1036234;28;20474;-50
2021/11/03 00:49:26;;;;;;;14.57;9.90;;;;;;;0.52;100.00;94788.13;1032245;28;20023;-52
2021/11/03 00:49:57;;;;;;;12.23;9.13;;;;;;;0.49;100.00;94783.13;1036467;28;20029;-51
2021/11/03 00:50:28;;;;;;;13.10;9.63;;;;;;;0.49;100.00;94783.13;1040266;28;20017;-50
2021/11/03 00:51:00;;;;;;;12.43;8.88;;;;;;;0.49;100.00;94783.13;1040463;28;20506;-50
2021/11/03 00:51:30;;;;;;;13.88;8.43;;;;;;;0.49;100.00;94789.13;1040265;28;20018;-50
2021/11/03 00:52:01;;;;;;;14.55;9.57;;;;;;;0.48;100.00;94784.03;1036067;28;20323;-50
2021/11/03 00:52:32;;;;;;;13.00;8.85;;;;;;;0.47;100.00;94784.94;1032088;28;20548;-51
2021/11/03 00:53:03;;;;;;;9.85;8.05;;;;;;;0.51;100.00;94787.31;1031859;28;20106;-53
2021/11/03 00:53:34;;;;;;;11.68;8.10;;;;;;;0.52;100.00;94783.81;1032296;28;20014;-52
2021/11/03 00:54:05;;;;;;;11.30;8.60;;;;;;;0.53;100.00;94785.47;1036079;28;20804;-52
2021/11/03 00:54:35;;;;;;;12.07;8.43;;;;;;;0.55;100.00;94788.00;1040273;28;20014;-50
2021/11/03 00:55:06;;;;;;;11.52;8.65;;;;;;;0.55;100.00;94783.66;1032073;28;20365;-50
2021/11/03 00:55:37;;;;;;;10.85;8.63;;;;;;;0.56;100.00;94785.34;1028213;28;20015;-51
2021/11/03 00:56:08;;;;;;;10.73;8.50;;;;;;;0.58;100.00;94790.41;1032796;28;20017;-50
2021/11/03 00:56:39;;;;;;;9.75;8.43;;;;;;;0.56;100.00;94785.34;1036250;28;20014;-51
2021/11/03 00:57:09;;;;;;;10.18;8.02;;;;;;;0.52;100.00;94790.72;1036113;28;20292;-51
2021/11/03 00:57:40;;;;;;;10.77;8.27;;;;;;;0.49;100.00;94786.56;1036229;28;20022;-50
2021/11/03 00:58:11;;;;;;;9.88;7.57;;;;;;;0.52;100.00;94788.13;1032309;28;20109;-52
2021/11/03 00:58:41;;;;;;;11.77;7.85;;;;;;;0.54;100.00;94789.72;1036467;28;20010;-48
2021/11/03 00:59:12;;;;;;;12.45;8.27;;;;;;;0.53;100.00;94782.91;1032259;28;20109;-50
2021/11/03 00:59:43;;;;;;;9.85;7.38;;;;;;;0.55;100.00;94788.81;1032240;28;20018;-50
2021/11/03 01:00:15;;;;;;;9.90;8.38;;;;;;;0.55;100.00;94788.00;1036280;28;20109;-53
2021/11/03 01:00:46;;;;;;;8.95;7.28;;;;;;;0.54;100.00;94787.13;1032048;28;20121;-52
2021/11/03 01:01:17;;;;;;;10.55;8.15;;;;;;;0.54;100.00;94786.31;1027981;28;20274;-52
2021/11/03 01:01:48;;;;;;;9.25;6.78;;;;;;;0.55;100.00;94788.00;1028258;28;20090;-51
2021/11/03 01:02:18;;;;;;;8.98;6.82;;;;;;;0.53;100.00;94788.06;1031998;28;20480;-53
2021/11/03 01:02:49;;;;;;;8.30;6.60;;;;;;;0.53;100.00;94785.47;1032129;28;20319;-51
2021/11/03 01:03:20;;;;;;;8.80;6.63;;;;;;;0.54;100.00;94781.97;1031972;28;20492;-52
2021/11/03 01:03:51;;;;;;;10.57;7.85;;;;;;;0.55;100.00;94786.25;1024250;28;20019;-51
2021/11/03 01:04:22;;;;;;;9.05;7.03;;;;;;;0.52;100.00;94783.81;1028225;28;20015;-53
2021/11/03 01:04:53;;;;;;;9.18;6.45;;;;;;;0.54;100.00;94784.56;1024058;28;20811;-50
2021/11/03 01:05:24;;;;;;;8.85;6.60;;;;;;;0.55;100.00;94783.66;1028288;28;20025;-49
2021/11/03 01:05:55;;;;;;;9.88;6.85;;;;;;;0.56;100.00;94781.91;1032635;28;20711;-53
2021/11/03 01:06:26;;;;;;;12.55;7.32;;;;;;;0.56;100.00;94785.34;1036267;28;20308;-52
2021/11/03 01:06:56;;;;;;;10.18;7.10;;;;;;;0.56;100.00;94776.75;1032345;28;20022;-52
2021/11/03 01:07:27;;;;;;;9.65;7.03;;;;;;;0.56;100.00;94781.91;1036133;28;20033;-54
2021/11/03 01:07:58;;;;;;;8.57;7.13;;;;;;;0.55;100.00;94775.94;1032388;28;20026;-53
2021/11/03 01:08:29;;;;;;;12.32;7.00;;;;;;;0.53;100.00;94776.94;1028424;28;20755;-52
2021/11/03 01:08:59;;;;;;;8.35;6.43;;;;;;;0.52;100.00;94778.66;1027993;28;20113;-52
2021/11/03 01:09:30;;;;;;;9.00;6.43;;;;;;;0.54;100.00;94788.88;1031968;28;20499;-53
2021/11/03 01:10:01;;;;;;;9.00;6.63;;;;;;;0.53;100.00;94785.47;1032058;28;20045;-51
2021/11/03 01:10:32;;;;;;;9.70;6.97;;;;;;;0.53;100.00;94782.09;1032209;28;20014;-53
2021/11/03 01:11:03;;;;;;;9.63;6.50;;;;;;;0.51;100.00;94773.59;1031972;28;20696;-52
2021/11/03 01:11:35;;;;;;;11.10;8.25;;;;;;;0.47;100.00;94774.63;1031983;28;20373;-53
2021/11/03 01:12:06;;;;;;;7.95;6.25;;;;;;;0.43;100.00;94779.09;1036093;28;20096;-53
2021/11/03 01:12:37;;;;;;;9.70;7.60;;;;;;;0.42;100.00;94776.63;1039794;28;20333;-52
2021/11/03 01:13:08;;;;;;;10.02;7.05;;;;;;;0.41;100.00;94780.09;1035710;28;20303;-52
2021/11/03 01:13:39;;;;;;;11.15;7.95;;;;;;;0.38;100.00;94779.34;1036041;28;20257;-52
2021/11/03 01:14:10;;;;;;;14.57;8.80;;;;;;;0.37;100.00;94774.25;1036193;28;20265;-53
2021/11/03 01:14:41;;;;;;;7.75;6.22;;;;;;;0.35;100.00;94773.50;1036828;28;20269;-52
2021/11/03 01:15:15;;;;;;;10.60;7.32;;;;;;;0.36;100.00;94772.63;1040376;28;20063;-52
2021/11/03 01:15:46;;;;;;;9.07;6.93;;;;;;;0.32;100.00;94773.66;1040116;28;20038;-53
2021/11/03 01:16:17;;;;;;;11.27;7.63;;;;;;;0.31;100.00;94769.41;1031969;28;20369;-52
2021/11/03 01:16:47;;;;;;;10.00;7.85;;;;;;;0.29;100.00;94768.66;1028650;28;20019;-52
2021/11/03 01:17:18;;;;;;;10.50;7.40;;;;;;;0.27;100.00;94771.31;1027965;28;20026;-53
2021/11/03 01:17:49;;;;;;;8.60;6.72;;;;;;;0.25;100.00;94775.72;1023945;29;20536;-51
2021/11/03 01:18:19;;;;;;;10.32;7.53;;;;;;;0.27;100.00;94776.47;1023975;29;20039;-52
2021/11/03 01:18:53;;;;;;;8.23;6.18;;;;;;;0.27;100.00;94775.63;1028117;28;20070;-52
2021/11/03 01:19:24;;;;;;;12.13;6.90;;;;;;;0.27;100.00;94767.91;1032732;28;20080;-52
2021/11/03 01:19:55;;;;;;;10.88;7.47;;;;;;;0.27;100.00;94770.47;1032586;28;20328;-51
2021/11/03 01:20:26;;;;;;;11.40;7.63;;;;;;;0.25;100.00;94774.88;1031992;28;20121;-51
2021/11/03 01:20:57;;;;;;;11.00;7.20;;;;;;;0.25;100.00;94774.88;1028057;28;20110;-52
2021/11/03 01:21:28;;;;;;;14.00;7.35;;;;;;;0.25;100.00;94770.56;1032037;28;20253;-52
2021/11/03 01:21:59;;;;;;;9.98;7.60;;;;;;;0.23;100.00;94772.38;1036245;28;20114;-53
2021/11/03 01:22:29;;;;;;;9.85;7.68;;;;;;;0.22;100.00;94775.03;1036294;28;20010;-52
2021/11/03 01:23:00;;;;;;;10.88;8.20;;;;;;;0.22;100.00;94777.59;1035870;28;20263;-51
2021/11/03 01:23:31;;;;;;;10.75;7.93;;;;;;;0.23;100.00;94774.94;1028215;28;20023;-51
2021/11/03 01:24:02;;;;;;;11.05;7.35;;;;;;;0.25;100.00;94774.88;1032180;28;20024;-53
2021/11/03 01:24:33;;;;;;;10.10;7.45;;;;;;;0.22;100.00;94770.69;1032309;28;20268;-52
2021/11/03 01:25:05;;;;;;;9.25;7.30;;;;;;;0.21;100.00;94771.63;1028441;28;20027;-52
2021/11/03 01:25:36;;;;;;;9.35;7.70;;;;;;;0.19;100.00;94769.13;1031994;28;20018;-54
2021/11/03 01:26:07;;;;;;;12.10;7.20;;;;;;;0.17;100.00;94767.53;1028288;28;20715;-53
2021/11/03 01:26:37;;;;;;;7.88;6.57;;;;;;;0.19;100.00;94771.69;1032602;28;20069;-52
2021/11/03 01:27:08;;;;;;;9.90;7.40;;;;;;;0.19;100.00;94763.13;1040345;28;20514;-53
2021/11/03 01:27:39;;;;;;;9.20;7.55;;;;;;;0.19;100.00;94766.53;1032090;28;20560;-53
2021/11/03 01:28:10;;;;;;;9.15;7.25;;;;;;;0.21;100.00;94760.47;1027761;28;20046;-53
2021/11/03 01:28:40;;;;;;;9.30;7.43;;;;;;;0.20;100.00;94762.22;1027984;28;20026;-53
2021/11/03 01:29:11;;;;;;;9.60;7.55;;;;;;;0.21;100.00;94766.47;1023930;29;20290;-53
2021/11/03 01:29:42;;;;;;;12.02;8.10;;;;;;;0.22;100.00;94754.41;1027856;28;20361;-52
2021/11/03 01:30:14;;;;;;;10.45;7.35;;;;;;;0.21;100.00;94755.31;1027931;28;20106;-52
2021/11/03 01:30:45;;;;;;;13.82;7.82;;;;;;;0.19;100.00;94766.53;1028118;28;20022;-52
2021/11/03 01:31:16;;;;;;;12.30;7.18;;;;;;;0.20;100.00;94762.22;1028859;28;20258;-52
2021/11/03 01:31:47;;;;;;;11.57;6.97;;;;;;;0.22;100.00;94754.41;1029019;28;20270;-52
2021/11/03 01:32:18;;;;;;;8.82;6.88;;;;;;;0.23;100.00;94764.66;1027842;28;20342;-52
2021/11/03 01:32:49;;;;;;;8.32;6.80;;;;;;;0.22;100.00;94750.09;1027666;28;20692;-51
2021/11/03 01:33:20;;;;;;;10.35;6.43;;;;;;;0.24;100.00;94753.41;1028046;28;20069;-53
2021/11/03 01:33:52;;;;;;;8.40;6.65;;;;;;;0.22;100.00;94757.81;1031869;28;20117;-53
2021/11/03 01:34:23;;;;;;;9.38;6.68;;;;;;;0.21;100.00;94763.88;1031848;28;20696;-52
2021/11/03 01:34:53;;;;;;;8.48;7.35;;;;;;;0.21;100.00;94758.75;1031921;28;20356;-52
2021/11/03 01:35:24;;;;;;;9.52;6.97;;;;;;;0.24;100.00;94760.31;1032003;28;20461;-51
2021/11/03 01:35:55;;;;;;;9.60;7.45;;;;;;;0.25;100.00;94760.25;1032021;28;20026;-52
2021/11/03 01:36:26;;;;;;;9.13;7.13;;;;;;;0.23;100.00;94764.66;1027690;28;20051;-52
2021/11/03 01:36:57;;;;;;;10.43;7.70;;;;;;;0.22;100.00;94764.72;1027919;28;20061;-52
2021/11/03 01:37:27;;;;;;;10.48;7.75;;;;;;;0.21;100.00;94761.31;1024458;28;20062;-53
2021/11/03 01:37:58;;;;;;;11.85;8.13;;;;;;;0.17;100.00;94762.38;1024501;28;20098;-53
2021/11/03 01:38:29;;;;;;;11.95;8.40;;;;;;;0.18;100.00;94761.44;1028141;28;20539;-52
2021/11/03 01:38:59;;;;;;;11.15;7.68;;;;;;;0.16;100.00;94765.84;1032108;28;20018;-52
2021/11/03 01:39:31;;;;;;;14.93;7.15;;;;;;;0.15;100.00;94764.16;1031935;28;20014;-53
2021/11/03 01:40:11;;;;;;;10.30;7.10;;;;;;;0.13;100.00;94758.25;1028240;28;20015;-52
2021/11/03 01:40:43;;;;;;;11.13;7.32;;;;;;;0.10;100.00;94761.84;1027735;28;20273;-52
2021/11/03 01:41:14;;;;;;;12.57;8.75;;;;;;;0.10;100.00;94756.69;1027409;28;20524;-52
2021/11/03 01:41:44;;;;;;;9.13;7.70;;;;;;;0.10;100.00;94761.00;1037630;28;20271;-51
2021/11/03 01:42:18;;;;;;;9.68;8.07;;;;;;;0.09;100.00;94764.47;1035950;28;20014;-52
2021/11/03 01:42:48;;;;;;;10.27;8.18;;;;;;;0.08;100.00;94761.06;1031666;28;20120;-52
2021/11/03 01:43:41;;;;;;;14.95;8.52;;;;;;;0.09;100.00;94757.56;1031844;28;20257;-52
2021/11/03 01:44:11;;;;;;;10.02;7.97;;;;;;;0.06;100.00;94750.03;1031833;28;20022;-53
2021/11/03 01:44:42;;;;;;;11.48;8.20;;;;;;;0.09;100.00;94755.00;1034903;28;20256;-53
2021/11/03 01:45:13;;;;;;;11.13;7.93;;;;;;;0.09;100.00;94752.41;1031844;28;20014;-51
2021/11/03 01:45:45;;;;;;;10.98;8.02;;;;;;;0.10;100.00;94755.84;1028161;28;20063;-50
2021/11/03 01:46:26;;;;;;;10.23;7.97;;;;;;;0.13;100.00;94755.69;1031756;28;20794;-52
2021/11/03 01:46:57;;;;;;;;;;;;;;;0.13;100.00;94756.53;1032158;28;20348;-52
2021/11/03 01:47:49;;;;;;;9.55;7.10;;;;;;;0.14;100.00;94758.19;1027954;28;19914;-52
2021/11/03 01:48:19;;;;;;;11.52;6.57;;;;;;;0.16;100.00;94756.38;1027942;28;20651;-52
2021/11/03 01:48:54;;;;;;;9.80;6.55;;;;;;;0.16;100.00;94752.97;1026975;28;20274;-53
2021/11/03 01:49:27;;;;;;;8.32;6.45;;;;;;;0.17;100.00;94757.22;1031373;28;20088;-54
2021/11/03 01:49:59;;;;;;;10.35;7.43;;;;;;;0.19;100.00;94747.69;1032495;28;20348;-52
2021/11/03 01:50:37;;;;;;;9.90;7.05;;;;;;;0.19;100.00;94745.09;1032662;28;20277;-52
2021/11/03 01:51:08;;;;;;;8.48;6.57;;;;;;;0.23;100.00;94743.22;1033399;28;20270;-52
2021/11/03 01:51:50;;;;;;;8.90;7.13;;;;;;;0.25;100.00;94739.66;1032008;28;20281;-52
2021/11/03 01:52:21;;;;;;;11.75;7.78;;;;;;;0.24;100.00;94737.97;1027873;28;20463;-52
2021/11/03 01:52:58;;;;;;;11.88;6.80;;;;;;;0.24;100.00;94737.97;1029231;28;20373;-53
2021/11/03 01:53:29;;;;;;;9.88;6.93;;;;;;;0.25;100.00;94743.97;1034563;28;20092;-52
2021/11/03 01:54:00;;;;;;;10.07;7.10;;;;;;;0.21;100.00;94737.28;1029022;28;20317;-52
2021/11/03 01:54:33;;;;;;;8.52;7.07;;;;;;;0.22;100.00;94738.97;1029089;28;20023;-52
2021/11/03 01:55:05;;;;;;;9.75;7.35;;;;;;;0.18;100.00;94727.97;1027841;28;20058;-51
2021/11/03 01:55:35;;;;;;;10.00;7.00;;;;;;;0.20;100.00;94733.88;1027746;28;20285;-53
2021/11/03 01:56:07;;;;;;;10.05;7.32;;;;;;;0.22;100.00;94728.66;1027744;28;20266;-52
2021/11/03 01:56:38;;;;;;;10.32;7.32;;;;;;;0.18;100.00;94731.38;1027785;28;20023;-52
2021/11/03 01:57:10;;;;;;;12.65;7.80;;;;;;;0.13;100.00;94725.63;1032183;28;20497;-53
2021/11/03 01:57:44;;;;;;;8.75;6.65;;;;;;;0.16;100.00;94728.03;1023816;28;20599;-52
2021/11/03 01:58:16;;;;;;;12.32;7.57;;;;;;;0.12;100.00;94731.69;1031837;28;20779;-52
2021/11/03 01:58:51;;;;;;;8.65;6.88;;;;;;;0.11;100.00;94724.88;1027960;28;20779;-52
2021/11/03 01:59:28;;;;;;;9.25;6.32;;;;;;;0.10;100.00;94718.06;1027717;28;20345;-52
2021/11/03 02:00:02;;;;;;;10.30;7.00;;;;;;;0.11;100.00;94719.72;1031834;28;20305;-53
2021/11/03 02:00:35;;;;;;;8.25;6.75;;;;;;;0.13;100.00;94719.63;1027885;28;20266;-52
2021/11/03 02:01:05;;;;;;;12.98;7.80;;;;;;;0.08;100.00;94714.72;1023817;29;20302;-53
2021/11/03 02:01:36;;;;;;;9.55;6.90;;;;;;;0.08;100.00;94712.16;1031832;28;20779;-52
2021/11/03 02:02:07;;;;;;;10.05;7.03;;;;;;;0.08;100.00;94713.91;1031773;28;20421;-53
2021/11/03 02:02:38;;;;;;;15.48;8.27;;;;;;;0.06;100.00;94713.13;1031876;28;20027;-52
2021/11/03 02:03:11;;;;;;;9.27;6.72;;;;;;;0.03;100.00;94714.09;1023591;29;20510;-52
2021/11/03 02:03:42;;;;;;;12.13;7.05;;;;;;;0.02;100.00;94707.31;1031707;28;20046;-53
2021/11/03 02:04:12;;;;;;;9.70;7.55;;;;;;;0.03;100.00;94703.81;1035759;28;20261;-51
2021/11/03 02:04:43;;;;;;;9.30;7.57;;;;;;;-0.01;100.00;94697.97;1027950;28;20062;-52
2021/11/03 02:05:15;;;;;;;9.80;7.50;;;;;;;0.02;100.00;94701.28;1031982;28;20519;-53
2021/11/03 02:05:49;;;;;;;9.48;6.75;;;;;;;0.01;100.00;94707.38;1032676;28;20305;-51
2021/11/03 02:06:21;;;;;;;10.45;7.50;;;;;;;-0.01;100.00;94697.16;1043955;28;20381;-52
2021/11/03 02:06:53;;;;;;;8.45;6.80;;;;;;;0.01;100.00;94699.66;1035819;28;20365;-54
2021/11/03 02:07:26;;;;;;;11.48;8.15;;;;;;;0.00;100.00;94703.97;1027731;28;20357;-52
2021/11/03 02:07:56;;;;;;;10.05;7.20;;;;;;;0.00;100.00;94701.41;1031735;28;20843;-53
2021/11/03 02:08:28;;;;;;;10.13;7.78;;;;;;;0.02;100.00;94702.16;1035726;28;20275;-52
2021/11/03 02:08:59;;;;;;;11.93;8.38;;;;;;;0.02;100.00;94699.59;1027811;28;20033;-52
2021/11/03 02:09:30;;;;;;;8.43;6.53;;;;;;;0.03;100.00;94696.06;1027724;28;20341;-54
2021/11/03 02:10:00;;;;;;;9.27;7.07;;;;;;;0.03;100.00;94696.06;1027621;28;20031;-51
2021/11/03 02:10:31;;;;;;;10.27;7.82;;;;;;;0.03;100.00;94696.06;1027694;28;20090;-52
2021/11/03 02:11:02;;;;;;;11.07;8.07;;;;;;;0.02;100.00;94698.72;1027758;28;20022;-53
2021/11/03 02:11:33;;;;;;;9.02;7.55;;;;;;;0.00;100.00;94693.69;1023714;29;20267;-53
2021/11/03 02:12:04;;;;;;;11.43;7.80;;;;;;;-0.02;100.00;94691.16;1027723;28;20054;-52
2021/11/03 02:12:35;;;;;;;9.73;7.25;;;;;;;-0.03;100.00;94691.25;1027653;28;20027;-52
2021/11/03 02:13:09;;;;;;;8.40;6.93;;;;;;;-0.02;100.00;94692.88;1027596;28;20273;-52
2021/11/03 02:13:40;;;;;;;10.75;7.60;;;;;;;-0.03;100.00;94694.63;1027861;28;20026;-52
2021/11/03 02:14:10;;;;;;;11.55;7.38;;;;;;;-0.04;100.00;94686.97;1027632;28;20266;-53
2021/11/03 02:14:41;;;;;;;15.27;8.27;;;;;;;-0.02;100.00;94696.31;1027799;28;20266;-52
2021/11/03 02:15:13;;;;;;;11.57;7.80;;;;;;;-0.01;100.00;94692.00;1027907;28;20150;-53
2021/11/03 02:15:44;;;;;;;9.05;6.60;;;;;;;-0.01;100.00;94689.41;1024078;28;20094;-51
2021/11/03 02:16:16;;;;;;;10.35;7.68;;;;;;;-0.04;100.00;94686.97;1028360;28;20320;-52
2021/11/03 02:16:48;;;;;;;7.90;6.05;;;;;;;-0.03;100.00;94689.50;1035949;28;20018;-54
2021/11/03 02:17:20;;;;;;;9.77;7.60;;;;;;;-0.02;100.00;94683.44;1032554;28;20647;-52
2021/11/03 02:17:51;;;;;;;10.57;8.45;;;;;;;-0.01;100.00;94690.25;1037202;28;20364;-53
2021/11/03 02:18:22;;;;;;;9.93;7.72;;;;;;;-0.02;100.00;94680.88;1031666;28;20273;-52
2021/11/03 02:18:52;;;;;;;12.27;7.90;;;;;;;-0.03;100.00;94684.34;1028258;28;20382;-52
2021/11/03 02:19:26;;;;;;;11.00;7.93;;;;;;;-0.03;100.00;94673.22;1027736;28;20110;-52
2021/11/03 02:19:58;;;;;;;9.82;7.50;;;;;;;-0.03;100.00;94675.78;1028308;28;20500;-53
2021/11/03 02:20:29;;;;;;;10.98;8.00;;;;;;;-0.03;100.00;94675.78;1035028;28;20265;-53
2021/11/03 02:21:00;;;;;;;11.63;8.32;;;;;;;-0.04;100.00;94674.13;1028542;28;20357;-53
2021/11/03 02:21:38;;;;;;;12.15;7.82;;;;;;;-0.05;100.00;94677.63;1028152;28;20424;-52
2021/11/03 02:22:46;;;;;;;10.38;8.57;;;;;;;-0.08;100.00;94678.56;1033040;28;20022;-53
2021/11/03 02:23:47;;;;;;;10.43;7.28;;;;;;;-0.05;100.00;94682.75;1041968;28;20750;-52
2021/11/03 02:24:17;;;;;;;11.13;7.70;;;;;;;-0.06;100.00;94683.66;1039845;28;20260;-52
2021/11/03 02:25:04;;;;;;;11.07;7.18;;;;;;;-0.07;100.00;94684.59;1039878;28;20262;-52
2021/11/03 02:25:42;;;;;;;9.55;7.75;;;;;;;-0.10;100.00;94682.16;1040013;28;20021;-52
2021/11/03 02:26:17;;;;;;;11.40;8.60;;;;;;;-0.09;100.00;94686.41;1035929;28;20257;-52
2021/11/03 02:26:48;;;;;;;13.90;9.57;;;;;;;-0.07;100.00;94682.00;1039715;28;20278;-52
2021/11/03 02:27:19;;;;;;;14.65;10.38;;;;;;;-0.10;100.00;94688.13;1039985;28;20780;-53
2021/11/03 02:27:50;;;;;;;14.02;10.77;;;;;;;-0.09;100.00;94682.06;1037292;28;20026;-52
2021/11/03 02:28:21;;;;;;;14.98;9.45;;;;;;;-0.07;100.00;94682.84;1027707;28;20018;-52